Impacts TAF Board
For situational awareness. Not to be used for flight planning purposes.
IDs:

KNEW - New Orleans/Lakefron, LA, US

Issued at 1738 UTC 20 Sep 2018
Updated at 2031 UTC 20 Sep 2018
Potential Impact None Slight Moderate High
Time1953Z 20/21Z 20/22Z 20/23Z 21/00Z 21/01Z 21/02Z 21/03Z 21/04Z 21/05Z 21/06Z 21/07Z 21/08Z 21/09Z>>
Type OBS PRVL PRVL PRVL PRVL PRVL PRVL PRVL PRVL PRVL PRVL PRVL PRVL PRVL
VIS 10 >6 >6 >6 >6 >6 >6 >6 >6 >6 >6 >6 >6 >6
CIG -- -- -- -- -- -- -- -- -- -- -- -- -- --
Cover SCT SCT SCT SCT SCT SCT SCT SCT SCT SCT SCT SCT SCT SCT
FltCat VFR VFR VFR VFR VFR VFR VFR VFR VFR VFR VFR VFR VFR VFR
WX -- VCTS VCTS VCTS -- -- -- -- -- -- -- -- -- --
WDir 130 130 130 130 160 160 160 160 160 160 160 160 160 160
WSpd 9 7 7 7 6 6 6 6 6 6 6 6 6 6
WGst -- -- -- -- -- -- -- -- -- -- -- -- -- --
Raw TAF
KNEW 201738Z 2018/2118 04007KT P6SM VCSH FEW035
  FM202000 13007KT P6SM VCTS FEW040CB SCT100
  FM210000 16006KT P6SM FEW030 SCT250
  PROB30 2115/2118 4SM -TSRA BKN025CB


Raw METAR
KNEW 201953Z 13009KT 10SM SCT040CB 33/24 A2998 RMK AO2 LTG DSNT W SLP147 T03280239
KNEW 201853Z 09007KT 10SM SCT030 33/24 A3000 RMK AO2 SLP152 T03330239
KNEW 201753Z 12006KT 10SM FEW035 FEW046 FEW080 33/23 A3002 RMK AO2 SLP158 T03280233 10328 20267 58008

METAR Board
For situational awareness. Not to be used for flight planning purposes.